createdAt,value
2023-02-19T00:00:45.835Z,88807.00
2023-02-19T00:01:45.844Z,88805.00
2023-02-19T00:02:45.832Z,88809.00
2023-02-19T00:03:45.878Z,88807.00
2023-02-19T00:04:45.851Z,88805.00
2023-02-19T00:05:45.801Z,88807.00
2023-02-19T00:06:45.774Z,88809.00
2023-02-19T00:07:45.788Z,88811.00
2023-02-19T00:08:45.745Z,88809.00
2023-02-19T00:09:45.737Z,88813.00
2023-02-19T00:10:45.733Z,88811.00
2023-02-19T00:11:45.719Z,88809.00
2023-02-19T00:12:45.713Z,88813.00
2023-02-19T00:13:45.707Z,88813.00
2023-02-19T00:14:45.692Z,88815.00
2023-02-19T00:15:45.688Z,88815.00
2023-02-19T00:16:45.671Z,88813.00
2023-02-19T00:17:45.662Z,88811.00
2023-02-19T00:18:45.650Z,88809.00
2023-02-19T00:19:45.642Z,88803.00
2023-02-19T00:20:45.633Z,88809.00
2023-02-19T00:21:45.625Z,88811.00
2023-02-19T00:22:45.611Z,88811.00
2023-02-19T00:23:45.602Z,88809.00
2023-02-19T00:24:47.320Z,88809.00
2023-02-19T00:25:45.602Z,88809.00
2023-02-19T00:26:45.612Z,88807.00
2023-02-19T00:27:45.583Z,88807.00
2023-02-19T00:28:45.579Z,88809.00
2023-02-19T00:29:45.592Z,88811.00
2023-02-19T00:30:45.586Z,88813.00
2023-02-19T00:31:45.729Z,88809.00
2023-02-19T00:32:45.559Z,88811.00
2023-02-19T00:33:45.639Z,88809.00
2023-02-19T00:34:45.552Z,88807.00
2023-02-19T00:35:45.548Z,88809.00
2023-02-19T00:36:45.539Z,88805.00
2023-02-19T00:37:45.521Z,88803.00
2023-02-19T00:38:45.520Z,88803.00
2023-02-19T00:39:45.516Z,88809.00
2023-02-19T00:40:45.516Z,88809.00
2023-02-19T00:41:45.522Z,88813.00
2023-02-19T00:42:45.506Z,88811.00
2023-02-19T00:43:45.515Z,88803.00
2023-02-19T00:44:45.498Z,88801.00
2023-02-19T00:45:45.503Z,88807.00
2023-02-19T00:46:45.497Z,88807.00
2023-02-19T00:47:45.499Z,88809.00
2023-02-19T00:48:45.497Z,88809.00
2023-02-19T00:49:45.514Z,88811.00
2023-02-19T00:50:45.479Z,88807.00
2023-02-19T00:51:45.492Z,88807.00
2023-02-19T00:52:45.470Z,88811.00
2023-02-19T00:53:45.486Z,88811.00
2023-02-19T00:54:45.483Z,88811.00
2023-02-19T00:55:45.471Z,88811.00
2023-02-19T00:56:45.478Z,88809.00
2023-02-19T00:57:45.459Z,88807.00
2023-02-19T00:58:45.457Z,88805.00
2023-02-19T00:59:45.462Z,88799.00
2023-02-19T01:00:45.461Z,88799.00
2023-02-19T01:01:45.558Z,88801.00
2023-02-19T01:02:45.454Z,88799.00
2023-02-19T01:03:45.459Z,88801.00
2023-02-19T01:04:45.523Z,88799.00
2023-02-19T01:05:45.442Z,88795.00
2023-02-19T01:06:45.429Z,88795.00
2023-02-19T01:07:45.437Z,88795.00
2023-02-19T01:08:45.440Z,88799.00
2023-02-19T01:09:45.438Z,88799.00
2023-02-19T01:10:45.437Z,88799.00
2023-02-19T01:11:45.462Z,88793.00
2023-02-19T01:12:45.434Z,88789.00
2023-02-19T01:13:45.440Z,88789.00
2023-02-19T01:14:45.434Z,88795.00
2023-02-19T01:15:45.449Z,88791.00
2023-02-19T01:16:45.445Z,88791.00
2023-02-19T01:17:45.453Z,88793.00
2023-02-19T01:18:45.452Z,88791.00
2023-02-19T01:19:45.445Z,88787.00
2023-02-19T01:20:45.453Z,88787.00
2023-02-19T01:21:45.436Z,88793.00
2023-02-19T01:22:45.443Z,88791.00
2023-02-19T01:23:45.434Z,88787.00
2023-02-19T01:24:45.439Z,88781.00
2023-02-19T01:25:45.425Z,88783.00
2023-02-19T01:26:45.414Z,88779.00
2023-02-19T01:27:45.420Z,88777.00
2023-02-19T01:28:45.428Z,88775.00
2023-02-19T01:29:45.421Z,88773.00
2023-02-19T01:30:45.403Z,88771.00
2023-02-19T01:31:45.540Z,88777.00
2023-02-19T01:32:45.402Z,88775.00
2023-02-19T01:33:45.396Z,88771.00
2023-02-19T01:34:45.393Z,88771.00
2023-02-19T01:35:45.387Z,88771.00
2023-02-19T01:36:45.384Z,88775.00
2023-02-19T01:37:45.391Z,88775.00
2023-02-19T01:38:45.388Z,88773.00
2023-02-19T01:39:45.380Z,88771.00
2023-02-19T01:40:45.372Z,88769.00
2023-02-19T01:41:45.371Z,88771.00
2023-02-19T01:42:45.365Z,88769.00
2023-02-19T01:43:45.354Z,88767.00
2023-02-19T01:44:45.358Z,88765.00
2023-02-19T01:45:45.347Z,88767.00
2023-02-19T01:46:45.390Z,88769.00
2023-02-19T01:47:45.355Z,88767.00
2023-02-19T01:48:45.343Z,88767.00
2023-02-19T01:49:45.347Z,88761.00
2023-02-19T01:50:45.353Z,88761.00
2023-02-19T01:51:45.351Z,88761.00
2023-02-19T01:52:45.357Z,88760.00
2023-02-19T01:53:45.353Z,88761.00
2023-02-19T01:54:45.340Z,88761.00
2023-02-19T01:55:45.341Z,88760.00
2023-02-19T01:56:45.336Z,88758.00
2023-02-19T01:57:45.337Z,88756.00
2023-02-19T01:58:45.331Z,88756.00
2023-02-19T01:59:45.328Z,88760.00
2023-02-19T02:00:45.352Z,88754.00
2023-02-19T02:01:45.363Z,88750.00
2023-02-19T02:02:45.326Z,88750.00
2023-02-19T02:03:45.322Z,88746.00
2023-02-19T02:04:45.312Z,88748.00
2023-02-19T02:05:45.309Z,88748.00
2023-02-19T02:06:45.318Z,88746.00
2023-02-19T02:07:45.316Z,88746.00
2023-02-19T02:08:45.310Z,88746.00
2023-02-19T02:09:45.311Z,88750.00
2023-02-19T02:10:45.295Z,88752.00
2023-02-19T02:11:45.303Z,88752.00
2023-02-19T02:12:45.296Z,88746.00
2023-02-19T02:13:45.286Z,88744.00
2023-02-19T02:14:45.290Z,88744.00
2023-02-19T02:15:45.270Z,88746.00
2023-02-19T02:16:45.274Z,88750.00
2023-02-19T02:17:45.276Z,88750.00
2023-02-19T02:18:45.260Z,88748.00
2023-02-19T02:19:45.260Z,88748.00
2023-02-19T02:20:45.259Z,88744.00
2023-02-19T02:21:45.278Z,88750.00
2023-02-19T02:22:45.265Z,88750.00
2023-02-19T02:23:45.265Z,88750.00
2023-02-19T02:24:45.268Z,88746.00
2023-02-19T02:25:45.257Z,88742.00
2023-02-19T02:26:45.258Z,88738.00
2023-02-19T02:27:45.256Z,88736.00
2023-02-19T02:28:45.274Z,88736.00
2023-02-19T02:29:45.263Z,88736.00
2023-02-19T02:30:45.278Z,88734.00
2023-02-19T02:31:45.378Z,88732.00
2023-02-19T02:32:45.266Z,88730.00
2023-02-19T02:33:45.289Z,88723.00
2023-02-19T02:34:45.268Z,88723.00
2023-02-19T02:35:45.267Z,88723.00
2023-02-19T02:36:45.298Z,88723.00
2023-02-19T02:37:45.289Z,88723.00
2023-02-19T02:38:45.299Z,88730.00
2023-02-19T02:39:45.272Z,88719.00
2023-02-19T02:40:45.277Z,88713.00
2023-02-19T02:41:45.285Z,88709.00
2023-02-19T02:42:45.283Z,88711.00
2023-02-19T02:43:45.284Z,88711.00
2023-02-19T02:44:45.311Z,88713.00
2023-02-19T02:45:45.314Z,88713.00
2023-02-19T02:46:45.283Z,88713.00
2023-02-19T02:47:45.324Z,88715.00
2023-02-19T02:48:45.281Z,88713.00
2023-02-19T02:49:45.285Z,88711.00
2023-02-19T02:50:45.275Z,88711.00
2023-02-19T02:51:45.277Z,88711.00
2023-02-19T02:52:45.279Z,88707.00
2023-02-19T02:53:45.280Z,88705.00
2023-02-19T02:54:45.285Z,88703.00
2023-02-19T02:55:45.273Z,88707.00
2023-02-19T02:56:45.264Z,88705.00
2023-02-19T02:57:45.263Z,88697.00
2023-02-19T02:58:45.274Z,88697.00
2023-02-19T02:59:45.271Z,88699.00
2023-02-19T03:00:45.271Z,88695.00
2023-02-19T03:01:45.262Z,88693.00
2023-02-19T03:02:45.261Z,88693.00
2023-02-19T03:03:45.263Z,88697.00
2023-02-19T03:04:45.266Z,88697.00
2023-02-19T03:05:45.268Z,88699.00
2023-02-19T03:06:45.286Z,88693.00
2023-02-19T03:07:45.280Z,88695.00
2023-02-19T03:08:45.273Z,88695.00
2023-02-19T03:09:45.277Z,88692.00
2023-02-19T03:10:45.279Z,88688.00
2023-02-19T03:11:45.282Z,88692.00
2023-02-19T03:12:45.286Z,88699.00
2023-02-19T03:13:45.285Z,88699.00
2023-02-19T03:14:45.289Z,88693.00
2023-02-19T03:15:45.286Z,88686.00
2023-02-19T03:16:45.305Z,88682.00
2023-02-19T03:17:45.285Z,88682.00
2023-02-19T03:18:45.286Z,88688.00
2023-02-19T03:19:45.285Z,88690.00
2023-02-19T03:20:45.286Z,88686.00
2023-02-19T03:21:45.287Z,88682.00
2023-02-19T03:22:45.289Z,88684.00
2023-02-19T03:23:45.293Z,88684.00
2023-02-19T03:24:45.293Z,88688.00
2023-02-19T03:25:45.292Z,88688.00
2023-02-19T03:26:45.285Z,88684.00
2023-02-19T03:27:45.272Z,88684.00
2023-02-19T03:28:45.283Z,88684.00
2023-02-19T03:29:45.287Z,88682.00
2023-02-19T03:30:45.282Z,88686.00
2023-02-19T03:31:45.332Z,88684.00
2023-02-19T03:32:45.272Z,88678.00
2023-02-19T03:33:45.266Z,88678.00
2023-02-19T03:34:45.284Z,88674.00
2023-02-19T03:35:45.262Z,88680.00
2023-02-19T03:36:45.276Z,88682.00
2023-02-19T03:37:45.281Z,88682.00
2023-02-19T03:38:45.288Z,88682.00
2023-02-19T03:39:45.308Z,88682.00
2023-02-19T03:40:45.309Z,88684.00
2023-02-19T03:41:45.297Z,88688.00
2023-02-19T03:42:45.293Z,88680.00
2023-02-19T03:43:45.300Z,88678.00
2023-02-19T03:44:45.303Z,88680.00
2023-02-19T03:45:45.307Z,88684.00
2023-02-19T03:46:45.293Z,88688.00
2023-02-19T03:47:45.292Z,88688.00
2023-02-19T03:48:45.297Z,88684.00
2023-02-19T03:49:47.842Z,88680.00
2023-02-19T03:50:45.317Z,88676.00
2023-02-19T03:51:45.329Z,88674.00
2023-02-19T03:52:45.330Z,88680.00
2023-02-19T03:53:45.307Z,88678.00
2023-02-19T03:54:45.307Z,88670.00
2023-02-19T03:55:45.319Z,88662.00
2023-02-19T03:56:45.330Z,88654.00
2023-02-19T03:57:45.326Z,88654.00
2023-02-19T03:58:45.330Z,88658.00
2023-02-19T03:59:45.314Z,88662.00
2023-02-19T04:00:45.316Z,88666.00
2023-02-19T04:01:45.320Z,88662.00
2023-02-19T04:02:45.338Z,88658.00
2023-02-19T04:03:45.325Z,88656.00
2023-02-19T04:04:45.345Z,88654.00
2023-02-19T04:05:45.330Z,88652.00
2023-02-19T04:06:45.335Z,88652.00
2023-02-19T04:07:45.332Z,88652.00
2023-02-19T04:08:45.333Z,88650.00
2023-02-19T04:09:45.331Z,88644.00
2023-02-19T04:10:45.338Z,88650.00
2023-02-19T04:11:45.337Z,88654.00
2023-02-19T04:12:45.339Z,88652.00
2023-02-19T04:13:45.346Z,88656.00
2023-02-19T04:14:45.365Z,88656.00
2023-02-19T04:15:45.349Z,88654.00
2023-02-19T04:16:45.371Z,88656.00
2023-02-19T04:17:45.332Z,88656.00
2023-02-19T04:18:45.352Z,88652.00
2023-02-19T04:19:45.342Z,88652.00
2023-02-19T04:20:45.361Z,88646.00
2023-02-19T04:21:45.343Z,88642.00
2023-02-19T04:22:45.345Z,88646.00
2023-02-19T04:23:45.357Z,88642.00
2023-02-19T04:24:45.359Z,88644.00
2023-02-19T04:25:45.370Z,88648.00
2023-02-19T04:26:45.367Z,88646.00
2023-02-19T04:27:45.366Z,88646.00
2023-02-19T04:28:45.377Z,88644.00
2023-02-19T04:29:45.376Z,88642.00
2023-02-19T04:30:45.426Z,88641.00
2023-02-19T04:31:45.475Z,88644.00
2023-02-19T04:42:45.424Z,88629.00
2023-02-19T04:43:45.430Z,88627.00
2023-02-19T04:44:45.426Z,88631.00
2023-02-19T04:45:45.429Z,88633.00
2023-02-19T04:46:45.430Z,88635.00
2023-02-19T04:47:45.433Z,88633.00
2023-02-19T04:48:45.430Z,88625.00
2023-02-19T04:49:45.432Z,88621.00
2023-02-19T04:50:45.433Z,88615.00
2023-02-19T04:51:45.437Z,88617.00
2023-02-19T04:52:45.432Z,88619.00
2023-02-19T04:53:45.437Z,88617.00
2023-02-19T04:54:45.436Z,88617.00
2023-02-19T04:55:45.439Z,88621.00
2023-02-19T04:56:45.455Z,88615.00
2023-02-19T04:57:45.452Z,88611.00
2023-02-19T04:58:45.465Z,88607.00
2023-02-19T04:59:45.449Z,88609.00
2023-02-19T05:00:45.450Z,88607.00
2023-02-19T05:01:45.460Z,88603.00
2023-02-19T05:02:45.450Z,88599.00
2023-02-19T05:03:45.447Z,88597.00
2023-02-19T05:04:45.451Z,88603.00
2023-02-19T05:05:45.456Z,88603.00
2023-02-19T05:06:45.458Z,88605.00
2023-02-19T05:07:45.470Z,88603.00
2023-02-19T05:08:45.471Z,88597.00
2023-02-19T05:09:45.478Z,88593.00
2023-02-19T05:10:45.485Z,88591.00
2023-02-19T05:11:45.512Z,88586.00
2023-02-19T05:12:45.503Z,88580.00
2023-02-19T05:13:45.544Z,88576.00
2023-02-19T05:14:45.501Z,88568.00
2023-02-19T05:15:45.534Z,88568.00
2023-02-19T05:16:45.507Z,88568.00
2023-02-19T05:17:45.512Z,88570.00
2023-02-19T05:18:45.540Z,88568.00
2023-02-19T05:19:45.525Z,88562.00
2023-02-19T05:20:45.526Z,88560.00
2023-02-19T05:21:45.518Z,88558.00
2023-02-19T05:22:45.526Z,88556.00
2023-02-19T05:23:45.525Z,88562.00
2023-02-19T05:24:45.543Z,88566.00
2023-02-19T05:25:45.537Z,88574.00
2023-02-19T05:26:45.664Z,88572.00
2023-02-19T05:27:45.538Z,88564.00
2023-02-19T05:28:45.541Z,88558.00
2023-02-19T05:29:45.538Z,88558.00
2023-02-19T05:30:45.575Z,88562.00
2023-02-19T05:31:45.619Z,88564.00
2023-02-19T05:32:45.552Z,88574.00
2023-02-19T05:33:45.550Z,88576.00
2023-02-19T05:34:45.559Z,88578.00
2023-02-19T05:35:45.575Z,88580.00
2023-02-19T05:36:45.568Z,88582.00
2023-02-19T05:37:45.575Z,88582.00
2023-02-19T05:38:45.580Z,88586.00
2023-02-19T05:39:45.579Z,88586.00
2023-02-19T05:40:45.598Z,88584.00
2023-02-19T05:41:45.601Z,88578.00
2023-02-19T05:42:45.598Z,88582.00
2023-02-19T05:43:45.607Z,88586.00
2023-02-19T05:44:45.612Z,88586.00
2023-02-19T05:45:45.623Z,88586.00
2023-02-19T05:46:45.651Z,88582.00
2023-02-19T05:47:45.617Z,88580.00
2023-02-19T05:48:45.624Z,88578.00
2023-02-19T05:49:45.627Z,88582.00
2023-02-19T05:50:45.625Z,88590.00
2023-02-19T05:51:45.628Z,88595.00
2023-02-19T05:52:45.633Z,88603.00
2023-02-19T05:53:45.648Z,88605.00
2023-02-19T05:54:45.633Z,88603.00
2023-02-19T05:55:45.633Z,88611.00
2023-02-19T05:56:45.648Z,88617.00
2023-02-19T05:57:45.651Z,88621.00
2023-02-19T05:58:45.656Z,88625.00
2023-02-19T05:59:45.663Z,88633.00
2023-02-19T06:00:45.661Z,88641.00
2023-02-19T06:01:45.664Z,88644.00
2023-02-19T06:02:45.701Z,88644.00
2023-02-19T06:03:45.729Z,88650.00
2023-02-19T06:04:45.683Z,88652.00
2023-02-19T06:05:45.686Z,88658.00
2023-02-19T06:06:45.694Z,88660.00
2023-02-19T06:07:45.710Z,88658.00
2023-02-19T06:08:45.702Z,88656.00
2023-02-19T06:09:45.712Z,88656.00
2023-02-19T06:10:45.750Z,88656.00
2023-02-19T06:11:45.726Z,88652.00
2023-02-19T06:12:45.733Z,88650.00
2023-02-19T06:13:45.741Z,88652.00
2023-02-19T06:14:45.756Z,88650.00
2023-02-19T06:15:45.832Z,88650.00
2023-02-19T06:16:45.747Z,88652.00
2023-02-19T06:17:45.755Z,88654.00
2023-02-19T06:18:45.752Z,88652.00
2023-02-19T06:19:45.748Z,88654.00
2023-02-19T06:20:45.744Z,88658.00
2023-02-19T06:21:45.742Z,88664.00
2023-02-19T06:22:45.769Z,88666.00
2023-02-19T06:23:45.763Z,88670.00
2023-02-19T06:24:45.773Z,88678.00
2023-02-19T06:25:45.774Z,88680.00
2023-02-19T06:26:45.794Z,88680.00
2023-02-19T06:27:45.781Z,88678.00
2023-02-19T06:28:45.798Z,88676.00
2023-02-19T06:29:45.795Z,88670.00
2023-02-19T06:30:45.803Z,88668.00
2023-02-19T06:31:45.932Z,88662.00
2023-02-19T06:32:45.813Z,88658.00
2023-02-19T06:33:45.830Z,88662.00
2023-02-19T06:34:45.814Z,88664.00
2023-02-19T06:35:45.818Z,88666.00
2023-02-19T06:36:45.829Z,88668.00
2023-02-19T06:37:45.826Z,88668.00
2023-02-19T06:38:45.857Z,88672.00
2023-02-19T06:39:45.840Z,88668.00
2023-02-19T06:40:45.839Z,88660.00
2023-02-19T06:41:45.842Z,88662.00
2023-02-19T06:42:45.843Z,88670.00
2023-02-19T06:43:45.871Z,88674.00
2023-02-19T06:44:45.856Z,88670.00
2023-02-19T06:45:45.869Z,88668.00
2023-02-19T06:46:45.891Z,88670.00
2023-02-19T06:47:45.884Z,88680.00
2023-02-19T06:48:45.919Z,88682.00
2023-02-19T06:49:45.899Z,88680.00
2023-02-19T06:50:45.899Z,88678.00
2023-02-19T06:51:45.907Z,88678.00
2023-02-19T06:52:45.912Z,88678.00
2023-02-19T06:53:45.920Z,88678.00
2023-02-19T06:54:45.915Z,88676.00
2023-02-19T06:55:45.928Z,88680.00
2023-02-19T06:56:47.118Z,88682.00
2023-02-19T06:57:45.933Z,88680.00
2023-02-19T06:58:45.944Z,88688.00
2023-02-19T06:59:45.958Z,88692.00
2023-02-19T07:00:45.988Z,88692.00
2023-02-19T07:01:45.966Z,88692.00
2023-02-19T07:02:45.960Z,88688.00
2023-02-19T07:03:46.011Z,88686.00
2023-02-19T07:04:45.967Z,88690.00
2023-02-19T07:05:45.989Z,88690.00
2023-02-19T07:06:45.967Z,88690.00
2023-02-19T07:07:45.970Z,88686.00
2023-02-19T07:08:45.982Z,88686.00
2023-02-19T07:09:45.982Z,88695.00
2023-02-19T07:10:45.972Z,88699.00
2023-02-19T07:11:45.976Z,88701.00
2023-02-19T07:12:45.979Z,88699.00
2023-02-19T07:13:45.994Z,88699.00
2023-02-19T07:14:46.000Z,88693.00
2023-02-19T07:15:46.013Z,88695.00
2023-02-19T07:16:46.013Z,88697.00
2023-02-19T07:17:46.013Z,88705.00
2023-02-19T07:18:46.030Z,88705.00
2023-02-19T07:19:46.017Z,88711.00
2023-02-19T07:20:46.070Z,88711.00
2023-02-19T07:21:46.036Z,88705.00
2023-02-19T07:22:46.040Z,88693.00
2023-02-19T07:23:46.071Z,88692.00
2023-02-19T07:24:47.862Z,88703.00
2023-02-19T07:25:46.078Z,88709.00
2023-02-19T07:26:46.070Z,88707.00
2023-02-19T07:27:46.135Z,88711.00
2023-02-19T07:28:46.114Z,88709.00
2023-02-19T07:29:46.135Z,88709.00
2023-02-19T07:30:46.160Z,88709.00
2023-02-19T07:31:46.161Z,88711.00
2023-02-19T07:32:46.164Z,88713.00
2023-02-19T07:33:46.156Z,88711.00
2023-02-19T07:34:46.177Z,88709.00
2023-02-19T07:35:46.179Z,88709.00
2023-02-19T07:36:46.162Z,88715.00
2023-02-19T07:37:46.166Z,88715.00
2023-02-19T07:38:46.169Z,88715.00
2023-02-19T07:39:46.211Z,88717.00
2023-02-19T07:40:46.189Z,88711.00
2023-02-19T07:41:46.191Z,88707.00
2023-02-19T07:42:46.189Z,88705.00
2023-02-19T07:43:46.231Z,88709.00
2023-02-19T07:44:46.236Z,88709.00
2023-02-19T07:45:46.282Z,88705.00
2023-02-19T07:46:46.198Z,88707.00
2023-02-19T07:47:46.272Z,88713.00
2023-02-19T07:48:46.255Z,88721.00
2023-02-19T07:49:46.222Z,88730.00
2023-02-19T07:50:46.253Z,88723.00
2023-02-19T07:51:46.226Z,88730.00
2023-02-19T07:52:46.287Z,88717.00
2023-02-19T07:53:46.245Z,88717.00
2023-02-19T07:54:46.277Z,88721.00
2023-02-19T07:55:46.226Z,88732.00
2023-02-19T07:56:46.231Z,88730.00
2023-02-19T07:57:46.222Z,88721.00
2023-02-19T07:58:46.271Z,88719.00
2023-02-19T07:59:46.242Z,88719.00
2023-02-19T08:00:46.281Z,88732.00
2023-02-19T08:01:46.260Z,88730.00
2023-02-19T08:02:46.271Z,88717.00
2023-02-19T08:03:47.765Z,88717.00
2023-02-19T08:04:46.380Z,88715.00
2023-02-19T08:05:46.375Z,88721.00
2023-02-19T08:06:46.390Z,88723.00
2023-02-19T08:07:46.359Z,88732.00
2023-02-19T08:08:46.379Z,88723.00
2023-02-19T08:09:46.341Z,88717.00
2023-02-19T08:10:47.053Z,88715.00
2023-02-19T08:11:46.341Z,88721.00
2023-02-19T08:12:46.329Z,88730.00
2023-02-19T08:13:46.317Z,88742.00
2023-02-19T08:14:46.336Z,88742.00
2023-02-19T08:15:46.314Z,88738.00
2023-02-19T08:16:46.350Z,88723.00
2023-02-19T08:17:46.318Z,88736.00
2023-02-19T08:18:46.338Z,88740.00
2023-02-19T08:19:46.306Z,88736.00
2023-02-19T08:20:46.292Z,88734.00
2023-02-19T08:21:46.292Z,88740.00
2023-02-19T08:22:46.307Z,88744.00
2023-02-19T08:23:46.276Z,88744.00
2023-02-19T08:24:46.294Z,88744.00
2023-02-19T08:25:46.262Z,88740.00
2023-02-19T08:26:46.281Z,88740.00
2023-02-19T08:27:46.276Z,88740.00
2023-02-19T08:28:46.293Z,88744.00
2023-02-19T08:29:46.263Z,88746.00
2023-02-19T08:30:46.321Z,88750.00
2023-02-19T08:31:46.380Z,88752.00
2023-02-19T08:32:46.251Z,88748.00
2023-02-19T08:33:46.248Z,88750.00
2023-02-19T08:34:46.255Z,88752.00
2023-02-19T08:35:46.269Z,88750.00
2023-02-19T08:36:46.248Z,88746.00
2023-02-19T08:37:46.234Z,88738.00
2023-02-19T08:38:46.262Z,88734.00
2023-02-19T08:39:46.212Z,88734.00
2023-02-19T08:40:46.218Z,88740.00
2023-02-19T08:41:46.263Z,88740.00
2023-02-19T08:42:46.203Z,88732.00
2023-02-19T08:43:46.204Z,88721.00
2023-02-19T08:44:46.207Z,88736.00
2023-02-19T08:45:46.192Z,88732.00
2023-02-19T08:46:46.203Z,88734.00
2023-02-19T08:47:46.173Z,88732.00
2023-02-19T08:48:46.176Z,88730.00
2023-02-19T08:49:46.177Z,88732.00
2023-02-19T08:50:46.161Z,88732.00
2023-02-19T08:51:46.177Z,88721.00
2023-02-19T08:52:46.155Z,88717.00
2023-02-19T08:53:46.206Z,88715.00
2023-02-19T08:54:46.157Z,88715.00
2023-02-19T08:55:46.186Z,88713.00
2023-02-19T08:56:46.213Z,88717.00
2023-02-19T08:57:46.148Z,88723.00
2023-02-19T08:58:46.134Z,88736.00
2023-02-19T08:59:46.133Z,88719.00
2023-02-19T09:00:46.107Z,88719.00
2023-02-19T09:01:46.148Z,88721.00
2023-02-19T09:02:46.079Z,88717.00
2023-02-19T09:03:46.081Z,88719.00
2023-02-19T09:04:46.069Z,88721.00
2023-02-19T09:05:46.077Z,88721.00
2023-02-19T09:06:46.050Z,88719.00
2023-02-19T09:07:46.038Z,88721.00
2023-02-19T09:08:46.049Z,88719.00
2023-02-19T09:09:46.013Z,88713.00
2023-02-19T09:10:46.007Z,88711.00
2023-02-19T09:11:47.894Z,88711.00
2023-02-19T09:12:45.969Z,88711.00
2023-02-19T09:13:45.971Z,88713.00
2023-02-19T09:14:45.943Z,88713.00
2023-02-19T09:15:45.991Z,88711.00
2023-02-19T09:16:45.925Z,88717.00
2023-02-19T09:17:45.914Z,88717.00
2023-02-19T09:18:45.892Z,88711.00
2023-02-19T09:19:45.887Z,88705.00
2023-02-19T09:20:45.874Z,88707.00
2023-02-19T09:21:45.868Z,88707.00
2023-02-19T09:22:45.835Z,88699.00
2023-02-19T09:23:45.837Z,88705.00
2023-02-19T09:24:45.800Z,88703.00
2023-02-19T09:25:45.785Z,88705.00
2023-02-19T09:26:45.774Z,88709.00
2023-02-19T09:27:45.758Z,88709.00
2023-02-19T09:28:45.740Z,88703.00
2023-02-19T09:29:45.715Z,88701.00
2023-02-19T09:30:45.766Z,88705.00
2023-02-19T09:31:45.811Z,88709.00
2023-02-19T09:32:45.677Z,88705.00
2023-02-19T09:33:45.664Z,88697.00
2023-02-19T09:34:45.626Z,88699.00
2023-02-19T09:35:45.614Z,88699.00
2023-02-19T09:36:45.595Z,88703.00
2023-02-19T09:37:45.581Z,88709.00
2023-02-19T09:38:45.555Z,88711.00
2023-02-19T09:39:45.528Z,88711.00
2023-02-19T09:40:45.502Z,88713.00
2023-02-19T09:41:45.520Z,88707.00
2023-02-19T09:42:45.459Z,88705.00
2023-02-19T09:43:45.450Z,88701.00
2023-02-19T09:44:45.448Z,88703.00
2023-02-19T09:45:45.404Z,88701.00
2023-02-19T09:46:45.374Z,88699.00
2023-02-19T09:47:45.354Z,88701.00
2023-02-19T09:48:45.337Z,88707.00
2023-02-19T09:49:45.310Z,88699.00
2023-02-19T09:50:45.300Z,88697.00
2023-02-19T09:51:45.270Z,88695.00
2023-02-19T09:52:45.254Z,88695.00
2023-02-19T09:53:45.226Z,88697.00
2023-02-19T09:54:45.203Z,88695.00
2023-02-19T09:55:45.182Z,88693.00
2023-02-19T09:56:45.173Z,88690.00
2023-02-19T09:57:45.138Z,88686.00
2023-02-19T09:58:45.115Z,88684.00
2023-02-19T09:59:45.085Z,88678.00
2023-02-19T10:00:45.052Z,88684.00
2023-02-19T10:01:45.066Z,88684.00
2023-02-19T10:02:45.024Z,88684.00
2023-02-19T10:03:44.995Z,88684.00
2023-02-19T10:04:45.023Z,88686.00
2023-02-19T10:05:44.964Z,88688.00
2023-02-19T10:06:44.911Z,88682.00
2023-02-19T10:07:44.912Z,88684.00
2023-02-19T10:08:44.856Z,88692.00
2023-02-19T10:09:44.829Z,88684.00
2023-02-19T10:10:44.815Z,88690.00
2023-02-19T10:11:44.789Z,88693.00
2023-02-19T10:12:44.774Z,88693.00
2023-02-19T10:13:44.739Z,88690.00
2023-02-19T10:14:44.708Z,88690.00
2023-02-19T10:15:44.698Z,88692.00
2023-02-19T10:16:44.663Z,88690.00
2023-02-19T10:17:44.644Z,88690.00
2023-02-19T10:18:44.614Z,88692.00
2023-02-19T10:19:44.591Z,88692.00
2023-02-19T10:20:44.569Z,88692.00
2023-02-19T10:21:44.541Z,88692.00
2023-02-19T10:22:44.506Z,88693.00
2023-02-19T10:23:44.485Z,88692.00
2023-02-19T10:24:44.450Z,88684.00
2023-02-19T10:25:44.436Z,88692.00
2023-02-19T10:26:44.397Z,88697.00
2023-02-19T10:27:44.374Z,88693.00
2023-02-19T10:28:44.333Z,88697.00
2023-02-19T10:29:44.303Z,88692.00
2023-02-19T10:30:44.267Z,88693.00
2023-02-19T10:31:44.306Z,88692.00
2023-02-19T10:32:44.219Z,88695.00
2023-02-19T10:33:44.178Z,88699.00
2023-02-19T10:34:44.147Z,88688.00
2023-02-19T10:35:44.115Z,88690.00
2023-02-19T10:36:44.081Z,88686.00
2023-02-19T10:37:44.063Z,88682.00
2023-02-19T10:38:44.032Z,88686.00
2023-02-19T10:39:44.005Z,88692.00
2023-02-19T10:40:43.979Z,88693.00
2023-02-19T10:41:44.459Z,88693.00
2023-02-19T10:42:43.918Z,88693.00
2023-02-19T10:43:43.890Z,88695.00
2023-02-19T10:44:43.850Z,88688.00
2023-02-19T10:45:43.821Z,88703.00
2023-02-19T10:46:43.824Z,88697.00
2023-02-19T10:47:43.768Z,88703.00
2023-02-19T10:48:43.719Z,88695.00
2023-02-19T10:49:43.705Z,88695.00
2023-02-19T10:50:43.660Z,88695.00
2023-02-19T10:51:43.626Z,88693.00
2023-02-19T10:52:43.611Z,88699.00
2023-02-19T10:53:43.586Z,88701.00
2023-02-19T10:54:43.548Z,88701.00
2023-02-19T10:55:43.562Z,88699.00
2023-02-19T10:56:43.492Z,88699.00
2023-02-19T10:57:43.463Z,88701.00
2023-02-19T10:58:43.437Z,88697.00
2023-02-19T10:59:43.405Z,88695.00
2023-02-19T11:00:43.385Z,88697.00
2023-02-19T11:01:43.423Z,88695.00
2023-02-19T11:02:43.322Z,88695.00
2023-02-19T11:03:43.299Z,88693.00
2023-02-19T11:04:43.324Z,88697.00
2023-02-19T11:05:43.232Z,88695.00
2023-02-19T11:06:43.199Z,88682.00
2023-02-19T11:07:43.174Z,88682.00
2023-02-19T11:08:43.138Z,88682.00
2023-02-19T11:09:43.110Z,88682.00
2023-02-19T11:10:43.076Z,88680.00
2023-02-19T11:11:43.047Z,88682.00
2023-02-19T11:12:43.008Z,88682.00
2023-02-19T11:13:42.976Z,88682.00
2023-02-19T11:14:42.939Z,88688.00
2023-02-19T11:15:42.911Z,88678.00
2023-02-19T11:16:42.904Z,88680.00
2023-02-19T11:17:42.842Z,88676.00
2023-02-19T11:18:42.815Z,88678.00
2023-02-19T11:19:42.787Z,88676.00
2023-02-19T11:20:42.750Z,88678.00
2023-02-19T11:21:42.716Z,88678.00
2023-02-19T11:22:42.695Z,88672.00
2023-02-19T11:23:42.652Z,88672.00
2023-02-19T11:24:42.614Z,88674.00
2023-02-19T11:25:42.578Z,88674.00
2023-02-19T11:26:42.536Z,88670.00
2023-02-19T11:27:42.512Z,88674.00
2023-02-19T11:28:42.471Z,88670.00
2023-02-19T11:29:42.431Z,88668.00
2023-02-19T11:30:42.469Z,88670.00
2023-02-19T11:31:42.402Z,88668.00
2023-02-19T11:32:42.327Z,88666.00
2023-02-19T11:33:42.280Z,88666.00
2023-02-19T11:34:42.254Z,88664.00
2023-02-19T11:35:42.202Z,88672.00
2023-02-19T11:36:42.177Z,88672.00
2023-02-19T11:37:42.138Z,88670.00
2023-02-19T11:38:42.111Z,88668.00
2023-02-19T11:39:42.084Z,88664.00
2023-02-19T11:40:42.057Z,88666.00
2023-02-19T11:41:42.010Z,88666.00
2023-02-19T11:42:41.979Z,88662.00
2023-02-19T11:43:41.950Z,88656.00
2023-02-19T11:44:41.919Z,88656.00
2023-02-19T11:45:41.887Z,88660.00
2023-02-19T11:46:41.883Z,88662.00
2023-02-19T11:47:41.813Z,88658.00
2023-02-19T11:48:41.791Z,88660.00
2023-02-19T11:49:41.757Z,88656.00
2023-02-19T11:50:41.721Z,88656.00
2023-02-19T11:51:41.687Z,88658.00
2023-02-19T11:52:41.654Z,88658.00
2023-02-19T11:53:41.618Z,88658.00
2023-02-19T11:54:41.604Z,88656.00